Time;durP1;ratioP1;P1;durP2;ratioP2;P2;SDS_P1;SDS_P2;PMS_P1;PMS_P2;Temp;Humidity;BMP_temperature;BMP_pressure;BME280_temperature;BME280_humidity;BME280_pressure;Samples;Min_cycle;Max_cycle;Signal;HPM_P1;HPM_P2
2024/01/28 00:01:41;;;;;;;14.90;10.13;;;1.10;1.00;;;;;;5072592;28;20166;-72
2024/01/28 00:04:08;;;;;;;22.80;9.30;;;1.20;1.00;;;;;;5072748;28;20181;-72
2024/01/28 00:06:34;;;;;;;14.03;9.23;;;1.10;1.00;;;;;;5033664;28;1110903;-72
2024/01/28 00:09:00;;;;;;;17.77;9.97;;;1.20;1.00;;;;;;5073662;28;20205;-72
2024/01/28 00:11:25;;;;;;;15.80;8.57;;;1.00;1.00;;;;;;5073686;28;20171;-72
2024/01/28 00:13:51;;;;;;;15.00;9.20;;;1.00;1.00;;;;;;5073711;28;20175;-72
2024/01/28 00:16:18;;;;;;;21.93;9.30;;;1.00;1.00;;;;;;5073226;28;20276;-72
2024/01/28 00:18:43;;;;;;;17.27;9.27;;;1.00;1.00;;;;;;5073447;28;20198;-72
2024/01/28 00:21:09;;;;;;;26.67;11.27;;;1.00;1.00;;;;;;5055589;28;20263;-72
2024/01/28 00:23:35;;;;;;;22.63;10.50;;;1.00;1.00;;;;;;5073533;28;20178;-72
2024/01/28 00:26:03;;;;;;;18.27;9.90;;;1.00;1.00;;;;;;5073493;28;20174;-72
2024/01/28 00:28:29;;;;;;;13.83;10.40;;;0.90;1.00;;;;;;5073373;28;20528;-72
2024/01/28 00:30:55;;;;;;;21.53;10.23;;;1.10;1.00;;;;;;5055164;28;20201;-72
2024/01/28 00:33:21;;;;;;;18.27;9.33;;;1.00;1.00;;;;;;5073321;28;20192;-71
2024/01/28 00:35:47;;;;;;;14.57;8.50;;;0.90;1.00;;;;;;5073621;28;20249;-71
2024/01/28 00:38:12;;;;;;;20.13;9.60;;;1.00;1.00;;;;;;5055476;28;20646;-71
2024/01/28 00:40:38;;;;;;;14.27;9.10;;;1.00;1.00;;;;;;5073383;28;20198;-71
2024/01/28 00:43:04;;;;;;;12.20;8.43;;;1.00;1.00;;;;;;5055737;28;20174;-71
2024/01/28 00:45:30;;;;;;;18.47;8.23;;;1.00;1.00;;;;;;5058768;28;20189;-72
2024/01/28 00:47:56;;;;;;;18.80;8.27;;;1.00;1.00;;;;;;5072913;28;20271;-72
2024/01/28 00:50:22;;;;;;;12.10;8.20;;;1.00;1.00;;;;;;5055382;28;20644;-72
2024/01/28 00:52:48;;;;;;;14.13;7.73;;;1.10;1.00;;;;;;5073040;28;20241;-72
2024/01/28 00:55:14;;;;;;;9.87;8.37;;;1.10;1.00;;;;;;5054856;28;20712;-71
2024/01/28 00:57:41;;;;;;;14.13;8.80;;;1.00;1.00;;;;;;5072397;28;20198;-72
2024/01/28 01:00:07;;;;;;;12.53;7.70;;;1.00;1.00;;;;;;5072726;28;20206;-72
2024/01/28 01:02:33;;;;;;;16.90;8.37;;;1.00;1.00;;;;;;5072888;28;20177;-72
2024/01/28 01:04:58;;;;;;;12.43;7.87;;;1.20;1.00;;;;;;5072801;28;20189;-72
2024/01/28 01:07:25;;;;;;;11.80;8.40;;;1.10;1.00;;;;;;5417599;22;20557;-88
2024/01/28 01:09:51;;;;;;;9.87;8.70;;;2.00;1.00;;;;;;5074329;28;20235;-88
2024/01/28 01:12:17;;;;;;;13.63;8.77;;;1.20;1.00;;;;;;5056571;28;20598;-88
2024/01/28 01:14:42;;;;;;;12.33;8.40;;;1.30;1.00;;;;;;5056644;28;20182;-88
2024/01/28 01:17:08;;;;;;;22.40;9.83;;;1.50;1.00;;;;;;5069776;28;20288;-88
2024/01/28 01:19:34;;;;;;;16.40;9.50;;;1.50;1.00;;;;;;5094496;28;20253;-88
2024/01/28 01:22:02;;;;;;;18.70;9.43;;;1.40;1.00;;;;;;5079157;28;20218;-88
2024/01/28 01:24:28;;;;;;;17.40;9.90;;;1.30;1.00;;;;;;5063491;28;20261;-88
2024/01/28 01:26:54;;;;;;;14.83;9.30;;;1.40;99.90;;;;;;5056408;28;20229;-88
2024/01/28 01:29:20;;;;;;;12.33;9.07;;;1.50;99.90;;;;;;5056673;28;20189;-89
2024/01/28 01:31:45;;;;;;;15.93;8.40;;;1.10;99.90;;;;;;5056516;28;20192;-88
2024/01/28 01:34:11;;;;;;;12.10;8.83;;;1.30;99.90;;;;;;5056121;28;20182;-88
2024/01/28 01:36:42;;;;;;;11.87;8.13;;;1.20;99.90;;;;;;5077042;28;20204;-88
2024/01/28 01:39:08;;;;;;;15.90;7.77;;;1.30;99.90;;;;;;5094221;28;20683;-88
2024/01/28 01:41:33;;;;;;;14.10;8.23;;;1.00;98.60;;;;;;5076239;28;20234;-88
2024/01/28 01:44:00;;;;;;;12.23;7.93;;;1.10;1.00;;;;;;5076694;28;20639;-87
2024/01/28 01:46:27;;;;;;;15.17;8.50;;;1.10;31.30;;;;;;5070370;28;20215;-87
2024/01/28 01:48:53;;;;;;;11.80;8.23;;;0.80;99.90;;;;;;5057341;28;20181;-88
2024/01/28 01:51:20;;;;;;;14.93;8.20;;;0.80;99.90;;;;;;5055756;28;20208;-88
2024/01/28 01:53:47;;;;;;;10.40;7.60;;;1.10;99.90;;;;;;5056972;28;20182;-88
2024/01/28 01:56:14;;;;;;;14.87;7.73;;;0.80;99.90;;;;;;5055416;28;20198;-88
2024/01/28 01:58:40;;;;;;;15.40;7.67;;;0.90;1.00;;;;;;5073543;28;20543;-89
2024/01/28 02:01:05;;;;;;;13.90;8.00;;;1.10;1.00;;;;;;5080195;28;20186;-88
2024/01/28 02:03:33;;;;;;;13.20;6.83;;;1.10;1.00;;;;;;5075555;28;20647;-88
2024/01/28 02:05:59;;;;;;;10.83;7.03;;;1.00;1.00;;;;;;5080395;28;20201;-85
2024/01/28 02:08:26;;;;;;;11.37;7.00;;;0.90;1.00;;;;;;5097491;28;20233;-85
2024/01/28 02:10:52;;;;;;;13.13;7.80;;;0.90;1.00;;;;;;5080070;28;20213;-85
2024/01/28 02:13:17;;;;;;;12.57;8.60;;;1.00;1.00;;;;;;5080139;28;20212;-86
2024/01/28 02:15:43;;;;;;;8.33;7.23;;;1.10;1.00;;;;;;5067989;28;20172;-86
2024/01/28 02:18:09;;;;;;;11.43;7.60;;;1.30;1.00;;;;;;5100308;28;20181;-85
2024/01/28 02:20:35;;;;;;;15.37;8.00;;;1.10;1.00;;;;;;5100009;28;20224;-86
2024/01/28 02:23:04;;;;;;;8.63;7.57;;;1.40;1.00;;;;;;5086265;28;20182;-87
2024/01/28 02:25:29;;;;;;;16.57;8.00;;;0.90;1.00;;;;;;5056674;28;20186;-89
2024/01/28 02:27:55;;;;;;;11.23;7.57;;;1.50;1.00;;;;;;5055527;28;20316;-87
2024/01/28 02:30:22;;;;;;;11.30;8.07;;;1.30;1.00;;;;;;5054982;28;20230;-88
2024/01/28 02:32:49;;;;;;;18.83;8.40;;;1.50;1.00;;;;;;5059386;28;20177;-87
2024/01/28 02:35:16;;;;;;;13.73;7.20;;;1.00;1.00;;;;;;5075726;28;20211;-85
2024/01/28 02:37:41;;;;;;;11.97;7.30;;;1.20;99.90;;;;;;5074929;28;20211;-88
2024/01/28 02:40:08;;;;;;;9.40;7.50;;;1.30;99.90;;;;;;5075053;28;20213;-88
2024/01/28 02:42:34;;;;;;;9.57;7.50;;;1.10;99.90;;;;;;5095081;28;20168;-88
2024/01/28 02:45:00;;;;;;;10.70;6.93;;;1.30;99.90;;;;;;5075195;28;20173;-88
2024/01/28 02:47:26;;;;;;;16.87;7.63;;;1.10;99.90;;;;;;5072008;28;20198;-89
2024/01/28 02:49:51;;;;;;;10.10;7.00;;;1.10;99.90;;;;;;5055297;28;20185;-87
2024/01/28 02:52:17;;;;;;;14.43;7.67;;;1.30;99.90;;;;;;5055265;28;20552;-87
2024/01/28 02:54:43;;;;;;;10.80;7.87;;;1.10;99.90;;;;;;5054710;28;20182;-87
2024/01/28 02:57:08;;;;;;;11.77;7.17;;;1.40;99.90;;;;;;5055940;28;20197;-87
2024/01/28 02:59:34;;;;;;;10.80;7.63;;;1.30;99.90;;;;;;5060987;28;20214;-88
2024/01/28 03:02:00;;;;;;;11.73;7.30;;;1.10;99.90;;;;;;5059011;28;20192;-88
2024/01/28 03:04:25;;;;;;;10.30;6.87;;;1.00;99.90;;;;;;5059148;28;20619;-88
2024/01/28 03:06:51;;;;;;;17.67;7.73;;;1.20;99.90;;;;;;5059099;28;20259;-88
2024/01/28 03:09:18;;;;;;;10.13;7.33;;;1.30;99.90;;;;;;5059296;28;20247;-89
2024/01/28 03:11:44;;;;;;;10.10;7.63;;;1.20;99.90;;;;;;5058353;28;20206;-87
2024/01/28 03:14:10;;;;;;;7.77;6.57;;;1.10;1.00;;;;;;5069811;28;20678;-88
2024/01/28 03:16:36;;;;;;;9.97;6.67;;;1.10;1.00;;;;;;5078767;28;20193;-88
2024/01/28 03:19:02;;;;;;;11.50;6.83;;;1.10;99.90;;;;;;5079269;28;20209;-88
2024/01/28 03:21:28;;;;;;;12.23;7.03;;;1.40;99.90;;;;;;5078726;28;20264;-88
2024/01/28 03:23:55;;;;;;;10.47;6.57;;;1.40;99.90;;;;;;5078712;28;20173;-87
2024/01/28 03:26:20;;;;;;;12.73;8.40;;;1.40;99.90;;;;;;5076961;28;20202;-88
2024/01/28 03:28:46;;;;;;;13.53;7.80;;;1.20;99.90;;;;;;5078485;28;20181;-88
2024/01/28 03:31:12;;;;;;;10.67;6.87;;;1.30;99.90;;;;;;5078368;28;20207;-88
2024/01/28 03:33:38;;;;;;;11.60;6.60;;;1.30;99.90;;;;;;5079146;28;20268;-88
2024/01/28 03:36:04;;;;;;;14.00;6.63;;;1.30;99.90;;;;;;5078438;28;20217;-88
2024/01/28 03:38:30;;;;;;;9.73;6.30;;;1.00;99.90;;;;;;5061245;28;20557;-88
2024/01/28 03:40:55;;;;;;;8.73;7.23;;;1.40;99.90;;;;;;5078825;28;20312;-87
2024/01/28 03:43:21;;;;;;;17.10;7.80;;;1.40;99.90;;;;;;5078864;28;20173;-87
2024/01/28 03:45:47;;;;;;;11.37;6.70;;;1.20;99.90;;;;;;5078262;28;20173;-87
2024/01/28 03:48:12;;;;;;;7.83;7.13;;;1.20;99.90;;;;;;5078703;28;20177;-88
2024/01/28 03:50:38;;;;;;;12.97;6.87;;;1.40;99.90;;;;;;5078235;28;20199;-88
2024/01/28 03:53:05;;;;;;;12.87;7.17;;;1.30;99.90;;;;;;5078427;28;20219;-88
2024/01/28 03:55:31;;;;;;;12.73;6.47;;;1.00;99.90;;;;;;5059312;28;20613;-87
2024/01/28 03:57:56;;;;;;;9.67;6.67;;;1.50;99.90;;;;;;5075961;28;20201;-88
2024/01/28 04:00:28;;;;;;;10.47;6.90;;;1.40;99.90;;;;;;5058014;28;20205;-88
2024/01/28 04:02:54;;;;;;;11.53;7.10;;;1.20;99.90;;;;;;5058345;28;20544;-88
2024/01/28 04:05:20;;;;;;;8.93;6.73;;;1.40;49.70;;;;;;5057971;28;20185;-88
2024/01/28 04:07:46;;;;;;;11.70;7.90;;;1.00;39.30;;;;;;5057221;28;20243;-88
2024/01/28 04:10:15;;;;;;;11.27;7.30;;;1.00;1.00;;;;;;5076412;28;20223;-88
2024/01/28 04:12:41;;;;;;;20.07;7.93;;;1.00;1.00;;;;;;5077707;28;20264;-88
2024/01/28 04:15:07;;;;;;;13.23;7.43;;;1.10;1.00;;;;;;5095845;28;20185;-88
2024/01/28 04:17:33;;;;;;;10.30;6.63;;;0.90;1.00;;;;;;5077435;28;20651;-88
2024/01/28 04:19:58;;;;;;;9.03;7.10;;;0.90;39.20;;;;;;5077511;28;20205;-88
2024/01/28 04:22:24;;;;;;;12.13;7.00;;;0.90;99.90;;;;;;5067753;28;20243;-88
2024/01/28 04:24:50;;;;;;;10.33;7.10;;;1.10;99.90;;;;;;5057915;28;20185;-88
2024/01/28 04:27:15;;;;;;;8.07;6.07;;;0.80;16.60;;;;;;5058445;28;20205;-88
2024/01/28 04:29:43;;;;;;;9.43;6.77;;;0.80;1.00;;;;;;5058104;28;20243;-88
2024/01/28 04:32:11;;;;;;;14.73;7.57;;;0.60;1.00;;;;;;5057588;28;20530;-87
2024/01/28 04:34:37;;;;;;;11.87;6.53;;;0.80;99.90;;;;;;5079998;28;20185;-86
2024/01/28 04:37:03;;;;;;;14.13;6.73;;;0.90;1.00;;;;;;5090880;28;20182;-87
2024/01/28 04:39:28;;;;;;;10.63;7.23;;;0.40;1.00;;;;;;5078737;28;20228;-88
2024/01/28 04:41:55;;;;;;;10.50;7.43;;;0.50;1.00;;;;;;5078477;28;20460;-88
2024/01/28 04:44:21;;;;;;;10.80;7.17;;;0.30;99.90;;;;;;5078777;28;20639;-88
2024/01/28 04:46:48;;;;;;;17.63;7.30;;;0.60;99.90;;;;;;5078392;28;20227;-88
2024/01/28 04:49:14;;;;;;;8.47;7.27;;;0.30;1.00;;;;;;5083230;28;20197;-88
2024/01/28 04:51:41;;;;;;;12.53;7.50;;;0.60;1.00;;;;;;5057248;28;20182;-88
2024/01/28 04:54:06;;;;;;;17.97;7.20;;;0.80;1.00;;;;;;5057661;28;20175;-88
2024/01/28 04:56:32;;;;;;;15.93;7.30;;;0.80;1.00;;;;;;5056763;28;20202;-88
2024/01/28 04:58:58;;;;;;;10.70;6.63;;;1.00;1.00;;;;;;5057430;28;20202;-88
2024/01/28 05:01:24;;;;;;;13.70;7.73;;;0.60;1.00;;;;;;5057278;28;20185;-91
2024/01/28 05:03:49;;;;;;;12.77;6.83;;;0.60;1.00;;;;;;5068039;28;20184;-88
2024/01/28 05:06:16;;;;;;;20.63;7.23;;;1.00;1.00;;;;;;5077144;28;20190;-88
2024/01/28 05:08:44;;;;;;;13.90;6.67;;;0.80;1.00;;;;;;5095205;28;20249;-88
2024/01/28 05:11:09;;;;;;;10.40;7.27;;;1.00;1.00;;;;;;5077576;28;20695;-88
2024/01/28 05:13:36;;;;;;;11.83;6.67;;;0.90;1.00;;;;;;5077057;28;20170;-88
2024/01/28 05:16:01;;;;;;;11.20;8.03;;;0.80;1.00;;;;;;5075943;28;20190;-88
2024/01/28 05:18:27;;;;;;;12.30;7.17;;;0.90;99.90;;;;;;5076710;28;20180;-88
2024/01/28 05:20:53;;;;;;;16.33;7.63;;;1.00;99.90;;;;;;5076150;28;20740;-88
2024/01/28 05:23:18;;;;;;;13.43;7.97;;;0.70;99.90;;;;;;5077323;28;20700;-88
2024/01/28 05:25:44;;;;;;;7.50;6.57;;;0.80;99.90;;;;;;5077299;28;20238;-88
2024/01/28 05:28:11;;;;;;;15.83;6.87;;;0.70;99.90;;;;;;5078306;28;20227;-87
2024/01/28 05:30:37;;;;;;;10.43;6.73;;;0.60;99.90;;;;;;5076932;28;20180;-88
2024/01/28 05:33:04;;;;;;;9.20;6.97;;;0.80;1.00;;;;;;5057387;28;20636;-87
2024/01/28 05:35:32;;;;;;;10.57;6.77;;;0.50;1.00;;;;;;5057647;28;20240;-88
2024/01/28 05:37:59;;;;;;;11.00;6.80;;;0.60;99.90;;;;;;5073767;28;20400;-87
2024/01/28 05:40:25;;;;;;;14.83;6.90;;;0.70;99.90;;;;;;5076989;28;20579;-88
2024/01/28 05:42:50;;;;;;;9.67;6.50;;;0.50;99.90;;;;;;5077150;28;20170;-88
2024/01/28 05:45:16;;;;;;;11.40;6.53;;;1.10;99.90;;;;;;5077257;28;20172;-88
2024/01/28 05:47:42;;;;;;;7.70;6.90;;;0.90;99.90;;;;;;5077062;28;20193;-88
2024/01/28 05:50:08;;;;;;;13.57;7.00;;;1.00;99.90;;;;;;5079624;28;20181;-87
2024/01/28 05:52:35;;;;;;;11.97;6.53;;;0.50;99.90;;;;;;5094493;28;20181;-88
2024/01/28 05:55:00;;;;;;;11.70;6.80;;;0.50;99.90;;;;;;5079913;28;20595;-88
2024/01/28 05:57:26;;;;;;;7.57;6.07;;;0.40;99.90;;;;;;5077952;28;20289;-88
2024/01/28 05:59:52;;;;;;;13.37;6.70;;;0.70;89.00;;;;;;5077531;28;20700;-88
2024/01/28 06:02:17;;;;;;;14.17;6.60;;;0.40;99.90;;;;;;5077572;28;20204;-88
2024/01/28 06:04:43;;;;;;;10.57;6.90;;;0.80;99.90;;;;;;5051011;28;20555;-88
2024/01/28 06:07:09;;;;;;;6.60;6.00;;;0.80;99.90;;;;;;5055084;28;20197;-88
2024/01/28 06:09:34;;;;;;;7.20;6.50;;;0.60;99.90;;;;;;5055101;28;20269;-88
2024/01/28 06:12:00;;;;;;;8.50;6.90;;;0.60;99.90;;;;;;5038492;28;20175;-88
2024/01/28 06:14:27;;;;;;;10.47;6.60;;;0.80;99.90;;;;;;5055231;28;20632;-88
2024/01/28 06:16:52;;;;;;;12.77;6.80;;;0.30;99.90;;;;;;5070086;28;20677;-88
2024/01/28 06:19:18;;;;;;;8.33;6.73;;;0.70;99.90;;;;;;5064595;28;20228;-88
2024/01/28 06:21:44;;;;;;;8.50;6.40;;;0.90;99.90;;;;;;5076088;28;20192;-87
2024/01/28 06:24:10;;;;;;;14.60;7.00;;;0.60;99.90;;;;;;5059562;28;20174;-90
2024/01/28 06:26:38;;;;;;;9.67;6.23;;;0.70;99.90;;;;;;5060094;28;20208;-89
2024/01/28 06:29:04;;;;;;;13.73;6.87;;;1.30;99.90;;;;;;5060967;28;20265;-88
2024/01/28 06:31:29;;;;;;;12.60;7.20;;;1.20;99.90;;;;;;5060010;28;20205;-87
2024/01/28 06:33:55;;;;;;;9.87;6.30;;;1.50;1.00;;;;;;5080788;28;20181;-88
2024/01/28 06:36:21;;;;;;;11.20;6.33;;;1.30;1.00;;;;;;5080898;28;20189;-87
2024/01/28 06:38:47;;;;;;;8.87;6.47;;;0.70;1.00;;;;;;5078640;28;20181;-88
2024/01/28 06:41:15;;;;;;;13.90;7.30;;;1.80;1.00;;;;;;5064139;28;20196;-88
2024/01/28 06:43:41;;;;;;;11.73;6.77;;;0.80;99.90;;;;;;5081836;28;20173;-89
2024/01/28 06:46:07;;;;;;;9.50;7.00;;;1.20;99.90;;;;;;5080286;28;20261;-88
2024/01/28 06:48:32;;;;;;;11.03;7.17;;;1.30;1.00;;;;;;5079186;28;20181;-89
2024/01/28 06:50:58;;;;;;;7.00;6.30;;;1.50;99.90;;;;;;5063221;28;20257;-88
2024/01/28 06:53:24;;;;;;;7.53;6.37;;;1.10;99.90;;;;;;5062820;28;20174;-88
2024/01/28 06:55:55;;;;;;;11.43;6.57;;;1.00;1.00;;;;;;5063346;28;20178;-88
2024/01/28 06:58:20;;;;;;;9.47;6.33;;;0.80;1.00;;;;;;5063449;28;20208;-88
2024/01/28 07:00:46;;;;;;;8.57;6.63;;;1.20;1.00;;;;;;5064722;28;20223;-88
2024/01/28 07:03:11;;;;;;;7.00;5.67;;;1.20;1.00;;;;;;5067941;28;20197;-89
2024/01/28 07:05:38;;;;;;;11.13;6.60;;;1.10;1.00;;;;;;5087672;28;20204;-88
2024/01/28 07:08:05;;;;;;;7.77;6.53;;;1.60;99.90;;;;;;5070702;28;20193;-88
2024/01/28 07:10:32;;;;;;;11.53;6.73;;;0.80;99.90;;;;;;5083874;28;20182;-88
2024/01/28 07:12:58;;;;;;;7.93;6.50;;;1.30;99.90;;;;;;5068398;28;20189;-88
2024/01/28 07:15:25;;;;;;;10.13;6.00;;;1.10;99.90;;;;;;5085140;28;20190;-88
2024/01/28 07:17:50;;;;;;;14.37;6.93;;;1.60;99.90;;;;;;5080645;28;20202;-88
2024/01/28 07:20:16;;;;;;;8.03;7.17;;;1.50;99.90;;;;;;5068823;28;20202;-88
2024/01/28 07:22:42;;;;;;;8.10;6.60;;;1.10;99.90;;;;;;5070077;28;20181;-88
2024/01/28 07:25:09;;;;;;;9.30;6.40;;;1.10;1.00;;;;;;5070136;28;20193;-90
2024/01/28 07:27:35;;;;;;;7.90;6.67;;;1.70;1.00;;;;;;5069211;28;20202;-89
2024/01/28 07:30:01;;;;;;;9.57;6.83;;;0.40;1.00;;;;;;5049780;28;20653;-90
2024/01/28 07:32:26;;;;;;;9.73;7.20;;;1.40;28.20;;;;;;5087863;28;20176;-87
2024/01/28 07:34:52;;;;;;;8.70;6.93;;;1.50;1.00;;;;;;5089581;28;20174;-87
2024/01/28 07:37:18;;;;;;;13.50;7.70;;;1.80;1.00;;;;;;5079726;28;20283;-89
2024/01/28 07:39:44;;;;;;;12.77;6.83;;;1.40;99.90;;;;;;5082042;28;20209;-89
2024/01/28 07:42:09;;;;;;;12.53;6.50;;;1.50;99.90;;;;;;5098783;28;20161;-88
2024/01/28 07:44:37;;;;;;;12.40;7.03;;;1.80;99.90;;;;;;5080311;28;20541;-89
2024/01/28 07:47:04;;;;;;;15.23;6.63;;;2.00;99.90;;;;;;5080428;28;20193;-88
2024/01/28 07:49:30;;;;;;;8.67;6.70;;;1.30;99.90;;;;;;5051042;28;20179;-89
2024/01/28 07:51:56;;;;;;;12.83;6.50;;;1.60;1.00;;;;;;5060790;28;20249;-90
2024/01/28 07:54:22;;;;;;;10.20;6.97;;;1.40;1.00;;;;;;5058878;28;20177;-89
2024/01/28 07:56:47;;;;;;;11.23;6.67;;;1.90;99.90;;;;;;5058690;28;20194;-89
2024/01/28 07:59:13;;;;;;;9.47;6.37;;;1.70;99.90;;;;;;5059341;28;20201;-89
2024/01/28 08:01:39;;;;;;;10.70;6.30;;;1.80;99.90;;;;;;5059216;28;20215;-89
2024/01/28 08:04:04;;;;;;;7.77;6.20;;;2.40;99.90;;;;;;5042096;28;20193;-88
2024/01/28 08:06:30;;;;;;;7.30;6.63;;;2.10;1.00;;;;;;5070745;28;20193;-89
2024/01/28 08:08:56;;;;;;;7.20;6.33;;;2.00;1.00;;;;;;5077677;28;20682;-90
2024/01/28 08:11:22;;;;;;;10.43;6.63;;;2.00;1.00;;;;;;5080665;28;20177;-91
2024/01/28 08:13:48;;;;;;;9.10;6.13;;;2.00;1.00;;;;;;5079626;28;20246;-90
2024/01/28 08:16:14;;;;;;;8.57;6.63;;;1.80;1.00;;;;;;5081463;28;20276;-89
2024/01/28 08:18:40;;;;;;;11.73;6.73;;;2.00;1.00;;;;;;5081323;28;20226;-90
2024/01/28 08:21:06;;;;;;;7.53;6.00;;;2.30;1.00;;;;;;5082474;28;20253;-89
2024/01/28 08:23:34;;;;;;;7.73;6.40;;;2.60;1.00;;;;;;5087448;28;20197;-89
2024/01/28 08:25:59;;;;;;;8.43;5.50;;;2.90;1.00;;;;;;5068503;28;20193;-89
2024/01/28 08:28:25;;;;;;;6.53;5.63;;;3.00;99.90;;;;;;5080155;28;20643;-87
2024/01/28 08:30:51;;;;;;;7.60;6.30;;;3.60;99.90;;;;;;5081052;28;20199;-91
2024/01/28 08:33:17;;;;;;;5.80;5.20;;;3.60;60.70;;;;;;5081553;28;20227;-88
2024/01/28 08:35:44;;;;;;;8.87;6.20;;;4.60;22.20;;;;;;5081034;28;20189;-89
2024/01/28 08:38:10;;;;;;;6.23;5.23;;;4.00;1.00;;;;;;5079868;28;20181;-90
2024/01/28 08:40:38;;;;;;;10.57;5.57;;;4.30;1.00;;;;;;5084504;28;20299;-90
2024/01/28 08:43:08;;;;;;;5.93;4.90;;;4.60;1.00;;;;;;5084577;28;20182;-91
2024/01/28 08:45:36;;;;;;;9.50;5.13;;;4.70;1.00;;;;;;5081152;28;20237;-89
2024/01/28 08:48:02;;;;;;;6.60;4.80;;;5.00;1.00;;;;;;5061034;28;20189;-90
2024/01/28 08:50:28;;;;;;;5.63;4.70;;;5.00;1.00;;;;;;5059570;28;20181;-89
2024/01/28 08:52:53;;;;;;;6.80;4.77;;;5.50;1.00;;;;;;5052243;28;20238;-88
2024/01/28 08:55:19;;;;;;;8.83;5.03;;;5.60;1.00;;;;;;5071743;28;20231;-89
2024/01/28 08:57:45;;;;;;;6.63;5.07;;;5.90;1.00;;;;;;5063406;28;20201;-89
2024/01/28 09:00:12;;;;;;;5.57;4.70;;;5.80;1.00;;;;;;5061935;28;20254;-89
2024/01/28 09:02:39;;;;;;;8.33;4.60;;;6.20;1.00;;;;;;5073337;28;20233;-89
2024/01/28 09:05:05;;;;;;;6.27;5.00;;;6.40;1.00;;;;;;5077872;28;20174;-89
2024/01/28 09:07:31;;;;;;;12.77;4.57;;;6.50;1.00;;;;;;5062334;28;20210;-90
2024/01/28 09:09:57;;;;;;;6.67;4.77;;;6.60;1.00;;;;;;5041466;28;20196;-89
2024/01/28 09:12:24;;;;;;;9.23;4.63;;;6.80;1.00;;;;;;5057316;28;20195;-89
2024/01/28 09:14:50;;;;;;;8.33;5.13;;;6.80;1.00;;;;;;5057877;28;20174;-89
2024/01/28 09:17:16;;;;;;;6.83;4.17;;;7.10;1.00;;;;;;5057618;28;20580;-90
2024/01/28 09:19:42;;;;;;;4.60;3.90;;;6.90;1.00;;;;;;5058316;28;20206;-89
2024/01/28 09:22:08;;;;;;;7.00;4.60;;;6.90;1.00;;;;;;5071824;28;20178;-90
2024/01/28 09:24:33;;;;;;;5.43;4.40;;;7.10;1.00;;;;;;5075466;28;20188;-90
2024/01/28 09:27:01;;;;;;;6.00;4.70;;;7.10;1.00;;;;;;5078075;28;20195;-90
2024/01/28 09:29:27;;;;;;;7.23;4.70;;;7.20;1.00;;;;;;5064064;28;20655;-90
2024/01/28 09:31:55;;;;;;;6.30;4.37;;;7.30;1.00;;;;;;5060770;28;20178;-89
2024/01/28 09:34:23;;;;;;;13.90;5.17;;;7.60;1.00;;;;;;5068864;28;20221;-90
2024/01/28 09:36:49;;;;;;;8.37;4.77;;;7.70;1.00;;;;;;5057135;28;20607;-90
2024/01/28 09:39:15;;;;;;;7.33;4.43;;;7.90;1.00;;;;;;5057215;28;20378;-88
2024/01/28 09:42:00;;;;;;;4.50;3.87;;;7.90;1.00;;;;;;5057492;28;20166;-89
2024/01/28 09:44:26;;;;;;;5.00;3.80;;;7.90;1.00;;;;;;5057410;28;20557;-89
2024/01/28 09:46:55;;;;;;;6.93;4.73;;;7.80;1.00;;;;;;5057059;28;20711;-89
2024/01/28 09:49:23;;;;;;;7.73;4.67;;;7.70;1.00;;;;;;5057403;28;20185;-90
2024/01/28 09:51:49;;;;;;;5.97;4.27;;;7.90;1.00;;;;;;5056689;28;20174;-89
2024/01/28 09:54:15;;;;;;;7.60;4.33;;;7.90;1.00;;;;;;5075496;28;20178;-89
2024/01/28 09:56:41;;;;;;;7.43;4.40;;;8.00;1.00;;;;;;5056276;28;20613;-89
2024/01/28 09:59:09;;;;;;;7.20;4.47;;;8.10;1.00;;;;;;5056653;28;20220;-89
2024/01/28 10:01:35;;;;;;;13.87;5.23;;;8.20;1.00;;;;;;5056228;28;20232;-89
2024/01/28 10:04:01;;;;;;;6.53;4.07;;;8.30;1.00;;;;;;5056926;28;20178;-89
2024/01/28 10:06:29;;;;;;;5.73;4.30;;;8.50;1.00;;;;;;5056540;28;20273;-89
2024/01/28 10:08:54;;;;;;;6.37;4.17;;;8.60;1.00;;;;;;5056745;28;20190;-89
2024/01/28 10:11:21;;;;;;;4.30;3.90;;;8.70;1.00;;;;;;5089427;28;20217;-87
2024/01/28 10:13:46;;;;;;;4.93;4.20;;;8.60;1.00;;;;;;5080174;28;20169;-87
2024/01/28 10:16:12;;;;;;;7.67;4.50;;;8.80;1.00;;;;;;5057812;28;20198;-88
2024/01/28 10:18:38;;;;;;;5.80;4.13;;;8.80;1.00;;;;;;5057038;28;20231;-89
2024/01/28 10:21:04;;;;;;;5.40;4.57;;;9.10;1.00;;;;;;5056494;28;20213;-88
2024/01/28 10:23:36;;;;;;;5.77;4.00;;;9.20;1.00;;;;;;5056538;28;20601;-88
2024/01/28 10:26:01;;;;;;;5.33;4.40;;;9.40;1.00;;;;;;5056142;28;20671;-91
2024/01/28 10:28:29;;;;;;;6.40;4.00;;;9.40;1.00;;;;;;5057190;28;20185;-91
2024/01/28 10:30:55;;;;;;;6.77;4.23;;;9.40;1.00;;;;;;5057529;28;20178;-89
2024/01/28 10:33:22;;;;;;;7.00;4.23;;;9.30;1.00;;;;;;5056522;28;20591;-89
2024/01/28 10:35:48;;;;;;;5.40;4.17;;;9.50;1.00;;;;;;5055924;28;20182;-90
2024/01/28 10:38:20;;;;;;;7.93;4.00;;;9.40;1.00;;;;;;5055721;28;20188;-89
2024/01/28 10:40:47;;;;;;;4.93;3.97;;;9.60;1.00;;;;;;5055364;28;20254;-89
2024/01/28 10:43:15;;;;;;;4.90;4.20;;;9.60;1.00;;;;;;5056036;28;20219;-88
2024/01/28 10:45:42;;;;;;;8.00;4.00;;;9.80;1.00;;;;;;5055721;28;20174;-88
2024/01/28 10:48:16;;;;;;;5.60;4.20;;;9.90;1.00;;;;;;5055443;28;20185;-89
2024/01/28 10:50:42;;;;;;;6.00;3.77;;;10.00;1.00;;;;;;5055150;28;20182;-89
2024/01/28 10:53:09;;;;;;;9.47;4.40;;;10.00;1.00;;;;;;5055204;28;20264;-89
2024/01/28 10:55:36;;;;;;;5.43;4.30;;;10.10;1.00;;;;;;5072912;28;20189;-89
2024/01/28 10:58:05;;;;;;;4.53;4.13;;;10.20;1.00;;;;;;5074093;28;20188;-90
2024/01/28 11:00:32;;;;;;;6.57;3.87;;;10.20;1.00;;;;;;5055431;28;20217;-88
2024/01/28 11:02:59;;;;;;;7.40;3.80;;;10.40;1.00;;;;;;5056842;28;20180;-89
2024/01/28 11:05:26;;;;;;;7.87;4.87;;;10.60;1.00;;;;;;5056751;28;20178;-89
2024/01/28 11:07:59;;;;;;;7.90;4.80;;;10.70;1.00;;;;;;5056203;28;20229;-89
2024/01/28 11:10:27;;;;;;;5.77;3.60;;;10.80;1.00;;;;;;5057442;28;20261;-91
2024/01/28 11:12:54;;;;;;;8.07;4.67;;;10.70;1.00;;;;;;5058165;28;20640;-88
2024/01/28 11:15:20;;;;;;;5.40;4.27;;;10.60;1.00;;;;;;5075322;28;20632;-88
2024/01/28 11:17:47;;;;;;;5.33;4.20;;;10.60;1.00;;;;;;5057531;28;20198;-89
2024/01/28 11:20:16;;;;;;;5.63;3.90;;;10.60;1.00;;;;;;5079242;28;20205;-91
2024/01/28 11:22:51;;;;;;;7.83;4.20;;;10.60;1.00;;;;;;5044502;28;20185;-89
2024/01/28 11:25:20;;;;;;;9.50;4.47;;;10.60;1.00;;;;;;5061285;28;20654;-89
2024/01/28 11:28:08;;;;;;;4.10;3.70;;;10.60;1.00;;;;;;5061042;28;20186;-89
2024/01/28 11:30:34;;;;;;;5.57;3.70;;;10.70;1.00;;;;;;5046346;28;20348;-90
2024/01/28 11:33:16;;;;;;;7.23;4.60;;;10.80;1.00;;;;;;5061041;28;20174;-89
2024/01/28 11:35:45;;;;;;;7.77;4.10;;;10.90;1.00;;;;;;5061101;28;20662;-89
2024/01/28 11:38:19;;;;;;;3.63;3.33;;;11.00;1.00;;;;;;5078584;28;20170;-88
2024/01/28 11:40:55;;;;;;;5.27;4.10;;;11.10;1.00;;;;;;5059754;28;20232;-89
2024/01/28 11:43:21;;;;;;;10.20;5.00;;;11.30;1.00;;;;;;5060061;28;20679;-88
2024/01/28 11:45:47;;;;;;;5.40;3.73;;;11.30;1.00;;;;;;5059489;28;20177;-89
2024/01/28 11:48:13;;;;;;;7.27;4.20;;;11.40;1.00;;;;;;5059941;28;20190;-89
2024/01/28 11:50:39;;;;;;;4.30;3.90;;;11.50;1.00;;;;;;5080399;28;20178;-89
2024/01/28 11:53:06;;;;;;;6.63;4.33;;;11.50;1.00;;;;;;5086810;28;20197;-90
2024/01/28 11:55:34;;;;;;;7.27;3.80;;;11.50;1.00;;;;;;5086425;28;20177;-88
2024/01/28 11:58:02;;;;;;;4.53;4.13;;;11.20;1.00;;;;;;5062944;28;20170;-88
2024/01/28 12:00:28;;;;;;;4.77;3.90;;;11.70;1.00;;;;;;5062317;28;20288;-88
2024/01/28 12:02:54;;;;;;;8.00;3.80;;;11.70;1.00;;;;;;5087088;28;20170;-89
2024/01/28 12:05:19;;;;;;;9.70;4.00;;;11.70;1.00;;;;;;5066449;28;20177;-88
2024/01/28 12:07:46;;;;;;;5.57;4.03;;;11.70;1.00;;;;;;5064605;28;20205;-89
2024/01/28 12:10:13;;;;;;;8.07;4.20;;;11.80;1.00;;;;;;5060238;28;20662;-88
2024/01/28 12:12:42;;;;;;;9.33;5.33;;;11.80;1.00;;;;;;5060187;28;20204;-90
2024/01/28 12:15:12;;;;;;;6.30;3.90;;;11.80;1.00;;;;;;5060911;28;20178;-88
2024/01/28 12:17:39;;;;;;;7.93;4.37;;;11.80;1.00;;;;;;5067475;28;20202;-88
2024/01/28 12:20:06;;;;;;;6.27;3.97;;;11.80;1.00;;;;;;5063084;28;20198;-88
2024/01/28 12:22:39;;;;;;;4.93;3.80;;;12.00;1.00;;;;;;5062976;28;20200;-88
2024/01/28 12:25:09;;;;;;;6.47;4.20;;;12.10;1.00;;;;;;5044719;28;20268;-89
2024/01/28 12:27:36;;;;;;;5.07;3.57;;;12.20;1.00;;;;;;5060532;28;20295;-89
2024/01/28 12:30:02;;;;;;;6.67;3.67;;;12.30;1.00;;;;;;5059566;28;20546;-88
2024/01/28 12:32:27;;;;;;;5.37;4.30;;;12.30;1.00;;;;;;5077447;28;20166;-88
2024/01/28 12:34:54;;;;;;;4.00;3.60;;;12.40;1.00;;;;;;5042590;28;20200;-88
2024/01/28 12:37:23;;;;;;;5.33;3.90;;;12.50;1.00;;;;;;5059146;28;20194;-87
2024/01/28 12:39:49;;;;;;;5.07;3.57;;;12.60;1.00;;;;;;5076747;28;20201;-88
2024/01/28 12:42:18;;;;;;;7.53;4.07;;;12.70;1.00;;;;;;5058640;28;20281;-89
2024/01/28 12:44:44;;;;;;;5.50;3.30;;;12.70;1.00;;;;;;5060844;28;20174;-89
2024/01/28 12:47:10;;;;;;;4.50;3.60;;;12.70;1.00;;;;;;5060300;28;20194;-88
2024/01/28 12:49:36;;;;;;;4.47;3.90;;;12.60;1.00;;;;;;5057396;28;20720;-87
2024/01/28 12:52:02;;;;;;;4.30;3.63;;;12.70;1.00;;;;;;5074793;28;20166;-88
2024/01/28 12:54:27;;;;;;;6.70;3.80;;;12.60;1.00;;;;;;5058333;28;20185;-89